createdAt,value
2019-04-14T00:02:03.352Z,88.60
2019-04-14T00:04:40.117Z,89.02
2019-04-14T00:07:12.292Z,89.59
2019-04-14T00:09:45.299Z,90.07
2019-04-14T00:12:17.208Z,90.56
2019-04-14T00:14:49.165Z,90.99
2019-04-14T00:17:21.523Z,91.29
2019-04-14T00:19:54.446Z,91.61
2019-04-14T00:22:28.033Z,91.81
2019-04-14T00:24:59.723Z,91.52
2019-04-14T00:27:32.403Z,91.56
2019-04-14T00:30:05.705Z,91.23
2019-04-14T00:32:46.571Z,91.53
2019-04-14T00:35:47.052Z,91.25
2019-04-14T00:38:32.353Z,91.82
2019-04-14T00:41:13.779Z,92.44
2019-04-14T00:44:03.586Z,92.58
2019-04-14T00:46:58.153Z,93.16
2019-04-14T00:49:29.418Z,93.39
2019-04-14T00:52:01.706Z,93.25
2019-04-14T00:54:33.017Z,93.75
2019-04-14T00:57:05.158Z,93.99
2019-04-14T00:59:37.436Z,94.19
2019-04-14T01:02:09.809Z,94.44
2019-04-14T01:04:40.976Z,94.48
2019-04-14T01:07:13.061Z,94.10
2019-04-14T01:09:44.525Z,94.51
2019-04-14T01:12:17.445Z,95.03
2019-04-14T01:14:49.618Z,94.73
2019-04-14T01:17:22.045Z,94.95
2019-04-14T01:19:53.447Z,94.74
2019-04-14T01:22:25.329Z,95.28
2019-04-14T01:24:57.544Z,95.69
2019-04-14T01:27:29.917Z,95.54
2019-04-14T01:30:02.671Z,95.56
2019-04-14T01:32:35.009Z,95.82
2019-04-14T01:35:07.791Z,95.38
2019-04-14T01:37:39.775Z,95.80
2019-04-14T01:40:12.086Z,96.08
2019-04-14T01:42:44.199Z,96.56
2019-04-14T01:45:18.626Z,96.64
2019-04-14T01:47:51.118Z,96.65
2019-04-14T01:50:30.956Z,96.65
2019-04-14T01:53:11.945Z,96.53
2019-04-14T01:56:12.683Z,96.50
2019-04-14T01:58:51.231Z,96.81
2019-04-14T02:01:30.265Z,96.84
2019-04-14T02:04:02.944Z,97.03
2019-04-14T02:06:35.564Z,97.49
2019-04-14T02:09:12.087Z,96.99
2019-04-14T02:11:44.541Z,97.02
2019-04-14T02:14:16.857Z,97.01
2019-04-14T02:16:55.226Z,97.12
2019-04-14T02:19:24.175Z,96.04
2019-04-14T02:21:56.380Z,96.72
2019-04-14T02:24:28.853Z,97.21
2019-04-14T02:27:01.329Z,97.51
2019-04-14T02:29:34.291Z,97.65
2019-04-14T02:32:33.960Z,97.22
2019-04-14T02:35:13.560Z,97.80
2019-04-14T02:37:43.325Z,98.05
2019-04-14T02:42:52.228Z,98.09
2019-04-14T02:45:32.249Z,98.40
2019-04-14T02:50:24.491Z,99.09
2019-04-14T02:53:07.921Z,98.89
2019-04-14T02:55:34.182Z,98.71
2019-04-14T02:58:16.275Z,98.65
2019-04-14T03:00:58.468Z,98.54
2019-04-14T03:03:16.073Z,98.71
2019-04-14T03:08:25.239Z,99.11
2019-04-14T03:10:55.977Z,99.20
2019-04-14T03:13:29.209Z,99.39
2019-04-14T03:22:23.761Z,98.99
2019-04-14T03:24:47.211Z,99.57
2019-04-14T03:30:58.681Z,100.00
2019-04-14T03:33:52.562Z,100.00
2019-04-14T03:40:58.544Z,100.00
2019-04-14T03:43:38.856Z,100.00
2019-04-14T03:48:54.056Z,100.00
2019-04-14T03:51:10.606Z,100.00
2019-04-14T03:53:54.484Z,100.00
2019-04-14T03:56:24.564Z,100.00
2019-04-14T03:58:57.611Z,100.00
2019-04-14T04:01:30.224Z,100.00
2019-04-14T04:04:03.238Z,100.00
2019-04-14T04:06:38.062Z,100.00
2019-04-14T04:09:12.481Z,100.00
2019-04-14T04:11:45.529Z,100.00
2019-04-14T04:14:18.153Z,100.00
2019-04-14T04:16:57.934Z,100.00
2019-04-14T04:19:49.180Z,100.00
2019-04-14T04:22:39.026Z,100.00
2019-04-14T04:25:20.436Z,100.00
2019-04-14T04:28:10.192Z,100.00
2019-04-14T04:30:51.612Z,100.00
2019-04-14T04:33:43.677Z,100.00
2019-04-14T04:36:39.982Z,100.00
2019-04-14T04:39:19.316Z,100.00
2019-04-14T04:41:51.600Z,100.00
2019-04-14T04:44:26.926Z,100.00
2019-04-14T04:46:59.137Z,100.00
2019-04-14T04:49:31.255Z,100.00
2019-04-14T04:52:04.102Z,100.00
2019-04-14T04:54:36.405Z,100.00
2019-04-14T04:57:08.887Z,100.00
2019-04-14T04:59:40.930Z,100.00
2019-04-14T05:02:13.464Z,100.00
2019-04-14T05:04:46.033Z,100.00
2019-04-14T05:07:18.793Z,100.00
2019-04-14T05:10:08.917Z,100.00
2019-04-14T05:13:05.535Z,100.00
2019-04-14T05:15:48.979Z,100.00
2019-04-14T05:18:24.848Z,100.00
2019-04-14T05:20:55.961Z,100.00
2019-04-14T05:23:27.886Z,100.00
2019-04-14T05:26:00.554Z,100.00
2019-04-14T05:28:33.212Z,100.00
2019-04-14T05:31:05.448Z,100.00
2019-04-14T05:33:38.295Z,100.00
2019-04-14T05:36:10.702Z,100.00
2019-04-14T05:38:42.856Z,100.00
2019-04-14T05:41:15.723Z,99.88
2019-04-14T05:43:53.700Z,99.91
2019-04-14T05:46:21.480Z,100.00
2019-04-14T05:48:53.602Z,99.79
2019-04-14T05:51:26.443Z,99.53
2019-04-14T05:53:59.646Z,99.74
2019-04-14T05:56:32.021Z,99.70
2019-04-14T05:59:05.183Z,99.37
2019-04-14T06:01:37.082Z,99.15
2019-04-14T06:04:09.345Z,98.51
2019-04-14T06:06:41.324Z,98.30
2019-04-14T06:09:16.382Z,98.15
2019-04-14T06:11:48.332Z,98.05
2019-04-14T06:14:20.249Z,98.02
2019-04-14T06:16:51.443Z,97.72
2019-04-14T06:19:23.716Z,97.53
2019-04-14T06:21:55.553Z,97.42
2019-04-14T06:24:27.553Z,97.05
2019-04-14T06:26:59.383Z,96.75
2019-04-14T06:29:31.255Z,96.28
2019-04-14T06:32:21.956Z,96.19
2019-04-14T06:35:16.765Z,96.38
2019-04-14T06:37:58.025Z,96.46
2019-04-14T06:40:32.764Z,96.08
2019-04-14T06:43:06.923Z,95.83
2019-04-14T06:45:38.900Z,95.43
2019-04-14T06:48:10.236Z,94.33
2019-04-14T06:50:46.394Z,93.49
2019-04-14T06:53:18.742Z,92.71
2019-04-14T06:55:57.110Z,91.89
2019-04-14T07:03:00.406Z,90.00
2019-04-14T07:06:01.889Z,90.69
2019-04-14T07:08:59.402Z,90.78
2019-04-14T07:11:43.494Z,91.01
2019-04-14T07:14:57.296Z,90.63
2019-04-14T07:17:29.393Z,89.25
2019-04-14T07:20:02.608Z,90.27
2019-04-14T07:22:34.249Z,88.50
2019-04-14T07:26:00.622Z,87.16
2019-04-14T07:28:40.463Z,87.57
2019-04-14T07:31:36.541Z,88.50
2019-04-14T07:34:36.366Z,89.06
2019-04-14T07:37:20.225Z,88.94
2019-04-14T07:40:05.481Z,88.93
2019-04-14T07:42:46.949Z,87.08
2019-04-14T07:45:33.345Z,87.21
2019-04-14T07:48:20.200Z,87.42
2019-04-14T07:51:11.112Z,88.57
2019-04-14T07:54:04.788Z,88.36
2019-04-14T07:56:55.096Z,88.61
2019-04-14T07:59:51.097Z,88.76
2019-04-14T08:02:40.055Z,89.06
2019-04-14T08:05:15.654Z,89.36
2019-04-14T08:07:47.503Z,89.90
2019-04-14T08:10:19.625Z,88.84
2019-04-14T08:12:51.775Z,89.38
2019-04-14T08:15:23.920Z,88.59
2019-04-14T08:17:55.918Z,87.25
2019-04-14T08:20:28.167Z,87.19
2019-04-14T08:23:00.189Z,87.46
2019-04-14T08:25:32.158Z,87.82
2019-04-14T08:28:04.076Z,86.88
2019-04-14T08:30:36.048Z,87.09
2019-04-14T08:33:07.352Z,88.18
2019-04-14T08:35:38.682Z,88.20
2019-04-14T08:38:09.985Z,87.21
2019-04-14T08:40:41.280Z,86.87
2019-04-14T08:43:47.884Z,87.58
2019-04-14T08:46:36.970Z,87.17
2019-04-14T08:49:35.345Z,86.74
2019-04-14T08:52:29.949Z,86.48
2019-04-14T08:55:20.805Z,85.79
2019-04-14T08:58:06.761Z,85.53
2019-04-14T09:01:10.283Z,86.34
2019-04-14T09:04:18.099Z,86.30
2019-04-14T09:06:54.180Z,85.42
2019-04-14T09:09:28.472Z,84.84
2019-04-14T09:12:15.336Z,86.04
2019-04-14T09:14:39.118Z,85.94
2019-04-14T09:17:10.934Z,85.21
2019-04-14T09:19:43.917Z,84.05
2019-04-14T09:22:15.879Z,83.51
2019-04-14T09:24:47.872Z,83.84
2019-04-14T09:27:19.812Z,83.75
2019-04-14T09:29:52.506Z,82.49
2019-04-14T09:32:24.694Z,82.34
2019-04-14T09:34:56.904Z,82.43
2019-04-14T09:37:28.937Z,81.59
2019-04-14T09:40:10.833Z,81.06
2019-04-14T09:42:59.550Z,82.14
2019-04-14T09:45:43.964Z,81.99
2019-04-14T09:48:52.936Z,82.79
2019-04-14T09:51:43.362Z,83.89
2019-04-14T09:55:04.350Z,85.12
2019-04-14T09:57:42.574Z,85.54
2019-04-14T10:03:44.932Z,86.26
2019-04-14T10:06:22.390Z,85.44
2019-04-14T10:09:32.887Z,84.83
2019-04-14T10:12:11.614Z,86.63
2019-04-14T10:15:24.640Z,84.01
2019-04-14T10:18:04.102Z,83.92
2019-04-14T10:20:37.987Z,84.79
2019-04-14T10:23:10.291Z,84.75
2019-04-14T10:25:43.875Z,86.21
2019-04-14T10:28:16.023Z,86.51
2019-04-14T10:30:48.995Z,88.98
2019-04-14T10:33:21.566Z,90.44
2019-04-14T10:36:01.743Z,90.91
2019-04-14T10:44:21.015Z,89.63
2019-04-14T10:46:07.378Z,88.12
2019-04-14T10:48:40.567Z,86.58
2019-04-14T10:51:32.532Z,84.65
2019-04-14T10:54:03.288Z,83.97
2019-04-14T10:56:36.906Z,82.97
2019-04-14T10:59:14.620Z,81.34
2019-04-14T11:01:48.309Z,80.43
2019-04-14T11:04:19.716Z,80.79
2019-04-14T11:07:03.917Z,79.20
2019-04-14T11:09:36.057Z,79.24
2019-04-14T11:12:07.427Z,77.93
2019-04-14T11:14:39.332Z,77.47
2019-04-14T11:17:10.601Z,77.25
2019-04-14T11:19:42.447Z,77.69
2019-04-14T11:22:14.411Z,75.71
2019-04-14T11:24:45.605Z,74.67
2019-04-14T11:27:19.527Z,74.50
2019-04-14T11:29:53.903Z,75.24
2019-04-14T11:32:49.824Z,74.63
2019-04-14T11:35:27.489Z,74.37
2019-04-14T11:38:17.147Z,73.70
2019-04-14T11:40:50.717Z,73.38
2019-04-14T11:43:21.942Z,74.34
2019-04-14T11:45:56.206Z,72.75
2019-04-14T11:48:28.297Z,74.33
2019-04-14T11:51:00.478Z,74.05
2019-04-14T11:53:33.684Z,71.33
2019-04-14T11:56:08.060Z,70.00
2019-04-14T11:58:40.099Z,68.47
2019-04-14T12:01:24.771Z,67.56
2019-04-14T12:04:02.871Z,67.41
2019-04-14T12:06:56.194Z,66.83
2019-04-14T12:09:36.432Z,67.23
2019-04-14T12:12:09.620Z,67.09
2019-04-14T12:14:40.895Z,66.77
2019-04-14T12:17:12.244Z,66.60
2019-04-14T12:19:44.390Z,65.33
2019-04-14T12:22:16.700Z,64.06
2019-04-14T12:24:49.627Z,62.57
2019-04-14T12:27:21.831Z,62.81
2019-04-14T12:29:54.394Z,60.72
2019-04-14T12:32:26.982Z,59.53
2019-04-14T13:46:43.493Z,47.05
2019-04-14T13:49:15.417Z,51.18
2019-04-14T13:51:47.360Z,46.39
2019-04-14T13:54:20.540Z,47.07
2019-04-14T13:56:52.279Z,47.44
2019-04-14T13:59:25.469Z,48.05
2019-04-14T14:01:57.371Z,47.45
2019-04-14T14:04:32.303Z,47.39
2019-04-14T14:07:15.509Z,47.46
2019-04-14T14:09:56.943Z,47.03
2019-04-14T14:12:40.162Z,47.44
2019-04-14T14:15:39.610Z,46.05
2019-04-14T14:18:40.325Z,45.64
2019-04-14T14:21:39.587Z,45.18
2019-04-14T14:24:33.129Z,43.07
2019-04-14T14:27:16.782Z,43.34
2019-04-14T14:29:44.467Z,45.03
2019-04-14T14:32:35.123Z,42.94
2019-04-14T14:35:06.858Z,44.01
2019-04-14T14:37:38.742Z,44.44
2019-04-14T14:40:10.872Z,43.10
2019-04-14T14:42:42.162Z,43.79
2019-04-14T14:45:34.813Z,42.93
2019-04-14T14:48:25.191Z,43.48
2019-04-14T14:51:02.521Z,43.27
2019-04-14T14:54:14.743Z,42.71
2019-04-14T14:56:48.577Z,42.66
2019-04-14T14:59:20.833Z,42.11
2019-04-14T15:01:52.283Z,41.43
2019-04-14T15:04:24.325Z,40.69
2019-04-14T15:06:55.705Z,40.02
2019-04-14T15:09:26.861Z,39.74
2019-04-14T15:11:58.179Z,39.94
2019-04-14T15:14:29.399Z,39.58
2019-04-14T15:17:01.381Z,39.74
2019-04-14T15:19:32.963Z,39.77
2019-04-14T15:22:04.849Z,39.85
2019-04-14T15:24:37.189Z,39.84
2019-04-14T15:27:08.515Z,40.11
2019-04-14T15:29:40.264Z,39.75
2019-04-14T15:32:12.261Z,37.79
2019-04-14T15:34:43.693Z,37.36
2019-04-14T15:37:14.879Z,37.07
2019-04-14T15:39:47.545Z,36.70
2019-04-14T15:42:19.484Z,34.72
2019-04-14T15:44:51.758Z,35.22
2019-04-14T15:47:22.974Z,35.02
2019-04-14T15:49:55.252Z,35.17
2019-04-14T15:52:28.093Z,35.49
2019-04-14T15:55:00.017Z,36.19
2019-04-14T15:57:53.253Z,36.81
2019-04-14T16:00:45.327Z,35.40
2019-04-14T16:03:34.262Z,34.79
2019-04-14T16:06:38.262Z,34.29
2019-04-14T16:09:32.256Z,35.76
2019-04-14T16:12:22.653Z,37.27
2019-04-14T16:15:11.597Z,37.74
2019-04-14T16:17:51.858Z,37.81
2019-04-14T16:20:26.663Z,36.61
2019-04-14T16:22:57.888Z,37.55
2019-04-14T16:25:54.771Z,37.54
2019-04-14T16:29:02.614Z,37.03
2019-04-14T16:31:49.799Z,36.71
2019-04-14T16:34:24.541Z,35.88
2019-04-14T16:36:58.638Z,36.85
2019-04-14T16:39:29.930Z,35.07
2019-04-14T16:42:01.103Z,34.89
2019-04-14T16:44:32.568Z,35.25
2019-04-14T16:47:04.328Z,34.39
2019-04-14T16:49:36.032Z,34.56
2019-04-14T16:52:26.376Z,34.64
2019-04-14T16:55:19.556Z,35.19
2019-04-14T16:58:08.969Z,35.48
2019-04-14T17:00:43.506Z,35.38
2019-04-14T17:03:15.276Z,35.93
2019-04-14T17:05:47.371Z,35.83
2019-04-14T17:08:20.097Z,36.25
2019-04-14T17:10:51.808Z,36.87
2019-04-14T17:13:25.065Z,36.67
2019-04-14T17:16:15.684Z,37.33
2019-04-14T17:19:01.956Z,37.54
2019-04-14T17:22:06.504Z,37.99
2019-04-14T17:24:55.910Z,38.29
2019-04-14T17:27:46.172Z,38.63
2019-04-14T17:30:28.710Z,38.71
2019-04-14T17:33:13.367Z,39.17
2019-04-14T17:36:23.665Z,39.49
2019-04-14T17:39:17.982Z,40.24
2019-04-14T17:42:00.779Z,40.70
2019-04-14T17:44:47.579Z,41.34
2019-04-14T17:47:44.930Z,41.87
2019-04-14T17:50:40.496Z,42.54
2019-04-14T17:53:38.917Z,43.00
2019-04-14T17:56:30.820Z,43.22
2019-04-14T17:59:34.074Z,43.44
2019-04-14T18:02:16.223Z,43.75
2019-04-14T18:05:12.607Z,44.08
2019-04-14T18:08:08.726Z,44.42
2019-04-14T18:10:58.674Z,44.62
2019-04-14T18:13:47.959Z,44.97
2019-04-14T18:16:35.413Z,45.07
2019-04-14T18:19:19.609Z,45.77
2019-04-14T18:21:51.729Z,45.31
2019-04-14T18:24:23.968Z,45.46
2019-04-14T18:26:56.063Z,45.74
2019-04-14T18:29:49.726Z,45.82
2019-04-14T18:32:46.346Z,46.00
2019-04-14T18:35:30.911Z,46.33
2019-04-14T18:38:29.487Z,46.85
2019-04-14T18:41:21.355Z,46.98
2019-04-14T18:44:14.901Z,46.78
2019-04-14T18:46:59.828Z,46.47
2019-04-14T18:49:49.446Z,46.58
2019-04-14T18:52:45.475Z,46.64
2019-04-14T18:55:28.583Z,47.01
2019-04-14T18:58:27.798Z,47.68
2019-04-14T19:01:19.294Z,48.08
2019-04-14T19:03:51.577Z,48.54
2019-04-14T19:06:23.857Z,48.92
2019-04-14T19:08:55.956Z,49.04
2019-04-14T19:11:53.356Z,48.87
2019-04-14T19:14:29.271Z,48.88
2019-04-14T19:17:07.298Z,49.52
2019-04-14T19:19:40.430Z,50.11
2019-04-14T19:22:13.225Z,50.09
2019-04-14T19:24:44.452Z,50.49
2019-04-14T19:27:15.636Z,50.64
2019-04-14T19:29:46.949Z,51.07
2019-04-14T19:32:18.781Z,50.93
2019-04-14T19:34:50.698Z,50.83
2019-04-14T19:37:22.720Z,50.89
2019-04-14T19:39:54.041Z,50.55
2019-04-14T19:42:25.382Z,50.56
2019-04-14T19:44:57.217Z,51.07
2019-04-14T19:47:28.483Z,51.37
2019-04-14T19:50:00.391Z,51.56
2019-04-14T19:52:32.299Z,51.58
2019-04-14T19:55:05.270Z,51.78
2019-04-14T19:57:37.691Z,52.29
2019-04-14T20:00:11.139Z,52.83
2019-04-14T20:02:43.033Z,52.83
2019-04-14T20:05:15.286Z,52.79
2019-04-14T20:07:47.179Z,53.54
2019-04-14T20:10:18.606Z,53.93
2019-04-14T20:12:50.446Z,54.97
2019-04-14T20:15:31.822Z,55.05
2019-04-14T20:18:17.019Z,54.98
2019-04-14T20:21:05.945Z,55.44
2019-04-14T20:23:45.857Z,55.59
2019-04-14T20:26:39.870Z,55.78
2019-04-14T20:29:17.475Z,55.88
2019-04-14T20:31:55.133Z,57.01
2019-04-14T20:34:28.126Z,56.88
2019-04-14T20:37:00.096Z,56.69
2019-04-14T20:39:32.531Z,56.87
2019-04-14T20:42:05.458Z,56.49
2019-04-14T20:44:36.885Z,57.05
2019-04-14T20:47:09.595Z,57.37
2019-04-14T20:49:40.816Z,57.07
2019-04-14T20:52:12.020Z,57.41
2019-04-14T20:54:43.934Z,58.19
2019-04-14T20:57:15.835Z,58.50
2019-04-14T20:59:47.056Z,58.56
2019-04-14T21:02:46.654Z,59.00
2019-04-14T21:05:39.734Z,58.78
2019-04-14T21:08:43.647Z,59.24
2019-04-14T21:11:25.228Z,59.20
2019-04-14T21:14:18.142Z,58.77
2019-04-14T21:17:08.204Z,58.18
2019-04-14T21:19:53.930Z,58.11
2019-04-14T21:22:34.362Z,56.10
2019-04-14T21:25:37.431Z,55.11
2019-04-14T21:28:21.963Z,54.17
2019-04-14T21:31:15.580Z,53.82
2019-04-14T21:33:59.999Z,53.65
2019-04-14T21:37:08.583Z,53.97
2019-04-14T21:39:54.101Z,53.68
2019-04-14T21:42:25.386Z,53.64
2019-04-14T21:44:58.684Z,53.75
2019-04-14T21:47:30.629Z,53.63
2019-04-14T21:50:02.613Z,52.54
2019-04-14T21:52:40.300Z,52.30
2019-04-14T21:55:12.858Z,51.92
2019-04-14T21:57:52.217Z,52.13
2019-04-14T22:01:40.619Z,51.73
2019-04-14T22:04:23.555Z,51.23
2019-04-14T22:06:56.335Z,50.91
2019-04-14T22:09:32.796Z,50.43
2019-04-14T22:12:06.424Z,50.58
2019-04-14T22:14:37.673Z,50.61
2019-04-14T22:17:09.506Z,50.03
2019-04-14T22:19:41.340Z,50.26
2019-04-14T22:22:13.264Z,49.63
2019-04-14T22:24:45.334Z,49.96
2019-04-14T22:27:17.299Z,49.62
2019-04-14T22:29:48.488Z,49.07
2019-04-14T22:32:20.289Z,48.37
2019-04-14T22:34:52.239Z,48.95
2019-04-14T22:37:24.185Z,48.70
2019-04-14T22:39:56.116Z,48.40
2019-04-14T22:42:27.990Z,48.57
2019-04-14T22:44:59.169Z,48.82
2019-04-14T22:47:31.002Z,49.50
2019-04-14T22:50:02.865Z,50.32
2019-04-14T22:52:34.716Z,50.14
2019-04-14T22:55:07.494Z,50.55
2019-04-14T22:57:39.403Z,51.01
2019-04-14T23:00:15.065Z,51.25
2019-04-14T23:03:00.657Z,50.93
2019-04-14T23:05:50.176Z,51.19
2019-04-14T23:08:34.965Z,51.52
2019-04-14T23:11:24.177Z,51.73
2019-04-14T23:14:13.651Z,51.63
2019-04-14T23:17:03.104Z,51.64
2019-04-14T23:19:40.314Z,51.43
2019-04-14T23:22:22.761Z,51.90
2019-04-14T23:24:54.663Z,52.06
2019-04-14T23:27:26.526Z,52.45
2019-04-14T23:29:58.385Z,52.43
2019-04-14T23:32:30.307Z,52.54
2019-04-14T23:35:02.115Z,53.21
2019-04-14T23:37:33.959Z,52.99
2019-04-14T23:40:06.441Z,52.72
2019-04-14T23:42:38.270Z,52.78
2019-04-14T23:45:10.465Z,53.38
2019-04-14T23:47:41.614Z,53.35
2019-04-14T23:50:13.613Z,53.71
2019-04-14T23:52:45.396Z,54.12
2019-04-14T23:55:16.592Z,54.91
2019-04-14T23:57:48.515Z,54.96
